createdAt,value
2024-02-27T00:03:18.701Z,5.70
2024-02-27T00:08:21.704Z,6.33
2024-02-27T00:13:24.501Z,5.60
2024-02-27T00:18:27.536Z,5.93
2024-02-27T00:23:30.547Z,7.00
2024-02-27T00:28:33.451Z,6.07
2024-02-27T00:33:36.384Z,6.83
2024-02-27T00:38:39.681Z,5.90
2024-02-27T00:43:42.773Z,6.17
2024-02-27T00:48:45.639Z,6.50
2024-02-27T00:53:48.493Z,5.83
2024-02-27T00:58:51.270Z,6.40
2024-02-27T01:03:54.095Z,5.97
2024-02-27T01:08:56.968Z,6.20
2024-02-27T01:13:59.891Z,6.50
2024-02-27T01:19:02.924Z,6.43
2024-02-27T01:24:07.243Z,5.73
2024-02-27T01:29:10.373Z,5.00
2024-02-27T01:34:13.634Z,5.77
2024-02-27T01:39:16.647Z,5.10
2024-02-27T01:44:19.718Z,5.33
2024-02-27T01:49:23.550Z,5.83
2024-02-27T01:54:27.402Z,6.67
2024-02-27T01:59:30.756Z,7.00
2024-02-27T02:04:34.318Z,5.50
2024-02-27T02:09:37.281Z,6.50
2024-02-27T02:14:40.119Z,5.40
2024-02-27T02:19:43.053Z,4.80
2024-02-27T02:24:46.203Z,5.13
2024-02-27T02:29:49.118Z,5.50
2024-02-27T02:34:51.975Z,5.30
2024-02-27T02:39:55.091Z,7.93
2024-02-27T02:44:57.974Z,6.37
2024-02-27T02:50:08.981Z,6.13
2024-02-27T02:55:12.250Z,5.13
2024-02-27T03:00:15.718Z,4.80
2024-02-27T03:05:18.761Z,4.63
2024-02-27T03:10:21.853Z,4.40
2024-02-27T03:15:24.725Z,4.33
2024-02-27T03:20:27.712Z,5.83
2024-02-27T03:25:30.688Z,5.60
2024-02-27T03:30:33.457Z,6.30
2024-02-27T03:35:37.548Z,6.00
2024-02-27T03:40:40.316Z,6.80
2024-02-27T03:45:43.152Z,7.40
2024-02-27T03:50:45.977Z,5.40
2024-02-27T03:55:48.970Z,5.83
2024-02-27T04:00:52.630Z,5.30
2024-02-27T04:05:56.753Z,4.80
2024-02-27T04:10:59.801Z,4.70
2024-02-27T04:16:03.843Z,4.70
2024-02-27T04:21:06.872Z,5.23
2024-02-27T04:26:10.197Z,5.77
2024-02-27T04:31:13.365Z,5.63
2024-02-27T04:36:16.419Z,7.97
2024-02-27T04:41:19.453Z,8.00
2024-02-27T04:46:22.255Z,34.00
2024-02-27T04:51:25.008Z,19.90
2024-02-27T04:56:27.813Z,13.80
2024-02-27T05:01:30.850Z,8.77
2024-02-27T05:06:33.895Z,9.30
2024-02-27T05:11:36.909Z,9.53
2024-02-27T05:16:40.169Z,8.83
2024-02-27T05:21:43.085Z,8.53
2024-02-27T05:26:46.019Z,9.20
2024-02-27T05:31:48.877Z,8.70
2024-02-27T05:36:52.230Z,7.70
2024-02-27T05:41:55.784Z,8.40
2024-02-27T05:46:58.759Z,8.60
2024-02-27T05:52:01.699Z,7.70
2024-02-27T05:57:06.610Z,7.90
2024-02-27T06:02:09.510Z,8.10
2024-02-27T06:07:12.980Z,7.67
2024-02-27T06:12:15.857Z,7.33
2024-02-27T06:17:18.923Z,7.47
2024-02-27T06:22:24.042Z,6.73
2024-02-27T06:27:27.014Z,6.60
2024-02-27T06:32:29.869Z,7.80
2024-02-27T06:37:32.652Z,6.60
2024-02-27T06:42:38.324Z,7.03
2024-02-27T06:47:43.910Z,6.90
2024-02-27T06:52:46.773Z,6.23
2024-02-27T06:57:51.310Z,6.70
2024-02-27T07:02:54.357Z,6.70
2024-02-27T07:07:57.124Z,7.17
2024-02-27T07:13:00.130Z,6.73
2024-02-27T07:18:03.962Z,7.40
2024-02-27T07:23:06.932Z,7.93
2024-02-27T07:28:16.915Z,7.23
2024-02-27T07:33:24.991Z,7.83
2024-02-27T07:38:27.848Z,9.20
2024-02-27T07:43:30.761Z,8.57
2024-02-27T07:48:33.995Z,8.97
2024-02-27T07:53:36.966Z,9.33
2024-02-27T07:58:40.283Z,8.90
2024-02-27T08:03:43.522Z,8.30
2024-02-27T08:08:46.545Z,8.87
2024-02-27T08:13:49.705Z,8.57
2024-02-27T08:18:52.991Z,7.53
2024-02-27T08:23:55.985Z,9.00
2024-02-27T08:28:58.789Z,10.03
2024-02-27T08:34:05.747Z,11.17
2024-02-27T08:39:10.722Z,14.23
2024-02-27T08:44:13.714Z,13.80
2024-02-27T08:49:16.858Z,12.87
2024-02-27T08:54:19.755Z,12.23
2024-02-27T08:59:23.531Z,14.20
2024-02-27T09:04:26.602Z,15.00
2024-02-27T09:09:29.693Z,15.50
2024-02-27T09:14:33.555Z,14.40
2024-02-27T09:19:37.164Z,17.47
2024-02-27T09:24:40.143Z,23.83
2024-02-27T09:29:44.827Z,19.50
2024-02-27T09:34:48.307Z,19.93
2024-02-27T09:39:58.054Z,18.80
2024-02-27T09:45:09.660Z,20.30
2024-02-27T09:50:20.099Z,20.27
2024-02-27T09:55:25.160Z,20.60
2024-02-27T10:00:28.274Z,22.50
2024-02-27T10:05:31.557Z,21.40
2024-02-27T10:10:34.617Z,19.57
2024-02-27T10:15:37.796Z,20.40
2024-02-27T10:20:44.712Z,20.23
2024-02-27T10:25:47.859Z,22.27
2024-02-27T10:30:54.351Z,19.30
2024-02-27T10:35:58.190Z,18.27
2024-02-27T10:41:01.581Z,19.57
2024-02-27T10:46:04.636Z,18.80
2024-02-27T10:51:08.029Z,18.37
2024-02-27T10:56:11.307Z,20.63
2024-02-27T11:01:16.192Z,18.67
2024-02-27T11:06:24.961Z,19.27
2024-02-27T11:11:28.450Z,25.87
2024-02-27T11:16:32.853Z,17.47
2024-02-27T11:21:36.961Z,15.00
2024-02-27T11:26:40.505Z,14.97
2024-02-27T11:31:45.126Z,14.47
2024-02-27T11:37:12.376Z,15.70
2024-02-27T11:42:37.377Z,12.93
2024-02-27T11:47:49.799Z,12.00
2024-02-27T11:52:52.746Z,10.60
2024-02-27T11:57:58.175Z,10.77
2024-02-27T12:03:01.526Z,10.87
2024-02-27T12:08:05.980Z,12.63
2024-02-27T12:13:10.149Z,13.00
2024-02-27T12:18:13.515Z,11.70
2024-02-27T12:23:16.536Z,12.90
2024-02-27T12:28:19.765Z,13.47
2024-02-27T12:33:22.910Z,13.50
2024-02-27T12:38:26.825Z,14.10
2024-02-27T12:43:29.886Z,28.73
2024-02-27T12:48:33.203Z,18.70
2024-02-27T12:53:36.212Z,15.47
2024-02-27T12:58:41.977Z,16.90
2024-02-27T13:03:45.137Z,12.30
2024-02-27T13:08:49.147Z,12.20
2024-02-27T13:13:52.154Z,11.13
2024-02-27T13:18:56.053Z,11.83
2024-02-27T13:24:04.069Z,12.60
2024-02-27T13:29:06.993Z,14.00
2024-02-27T13:34:09.927Z,10.67
2024-02-27T13:39:13.158Z,10.50
2024-02-27T13:44:17.723Z,11.37
2024-02-27T13:49:21.584Z,12.17
2024-02-27T13:54:24.537Z,11.93
2024-02-27T13:59:27.947Z,11.80
2024-02-27T14:04:31.074Z,11.50
2024-02-27T14:09:34.229Z,11.47
2024-02-27T14:14:41.055Z,12.47
2024-02-27T14:19:44.172Z,12.87
2024-02-27T14:24:47.477Z,13.60
2024-02-27T14:29:50.511Z,13.23
2024-02-27T14:34:53.901Z,14.20
2024-02-27T14:39:56.890Z,16.30
2024-02-27T14:44:59.930Z,16.60
2024-02-27T14:50:05.870Z,14.43
2024-02-27T14:55:08.905Z,15.10
2024-02-27T15:00:13.088Z,14.23
2024-02-27T15:05:17.684Z,15.60
2024-02-27T15:10:20.880Z,16.73
2024-02-27T15:15:23.723Z,19.90
2024-02-27T15:20:26.493Z,15.20
2024-02-27T15:25:29.363Z,15.57
2024-02-27T15:30:32.400Z,16.67
2024-02-27T15:35:35.253Z,19.80
2024-02-27T15:40:38.169Z,16.47
2024-02-27T15:45:42.292Z,13.77
2024-02-27T15:50:45.200Z,15.87
2024-02-27T15:55:48.191Z,19.70
2024-02-27T16:00:51.148Z,16.40
2024-02-27T16:06:00.612Z,16.57
2024-02-27T16:11:03.642Z,16.33
2024-02-27T16:16:07.123Z,17.40
2024-02-27T16:21:21.165Z,17.20
2024-02-27T16:26:24.146Z,16.67
2024-02-27T16:31:29.263Z,16.57
2024-02-27T16:36:32.218Z,17.53
2024-02-27T16:41:35.968Z,17.00
2024-02-27T16:46:38.985Z,17.40
2024-02-27T16:51:41.991Z,20.50
2024-02-27T16:56:44.808Z,16.60
2024-02-27T17:01:47.812Z,16.70
2024-02-27T17:06:50.825Z,17.53
2024-02-27T17:11:53.732Z,18.13
2024-02-27T17:16:56.723Z,18.10
2024-02-27T17:21:59.694Z,17.60
2024-02-27T17:27:02.662Z,17.10
2024-02-27T17:32:06.072Z,18.40
2024-02-27T17:37:11.605Z,21.87
2024-02-27T17:42:14.748Z,27.57
2024-02-27T17:47:18.985Z,88.60
2024-02-27T17:52:24.423Z,155.70
2024-02-27T17:57:27.259Z,27.90
2024-02-27T18:02:30.189Z,40.20
2024-02-27T18:07:33.034Z,31.50
2024-02-27T18:12:36.166Z,19.20
2024-02-27T18:17:42.324Z,18.90
2024-02-27T18:22:46.153Z,19.90
2024-02-27T18:27:49.100Z,19.77
2024-02-27T18:32:52.007Z,19.87
2024-02-27T18:37:54.853Z,20.20
2024-02-27T18:42:59.295Z,19.97
2024-02-27T18:48:02.278Z,18.30
2024-02-27T18:53:06.418Z,20.80
2024-02-27T18:58:09.885Z,19.33
2024-02-27T19:03:12.808Z,19.70
2024-02-27T19:08:17.135Z,21.70
2024-02-27T19:13:20.780Z,21.57
2024-02-27T19:18:23.951Z,20.57
2024-02-27T19:23:26.945Z,20.80
2024-02-27T19:28:29.942Z,19.83
2024-02-27T19:33:32.822Z,21.30
2024-02-27T19:38:37.034Z,20.73
2024-02-27T19:43:40.118Z,22.50
2024-02-27T19:48:43.172Z,20.83
2024-02-27T19:53:47.174Z,22.73
2024-02-27T19:58:50.408Z,21.40
2024-02-27T20:03:53.409Z,22.47
2024-02-27T20:08:56.556Z,21.60
2024-02-27T20:13:59.859Z,20.27
2024-02-27T20:19:02.661Z,19.93
2024-02-27T20:24:06.007Z,20.70
2024-02-27T20:29:09.034Z,19.40
2024-02-27T20:34:12.336Z,21.40
2024-02-27T20:39:15.243Z,25.40
2024-02-27T20:44:18.090Z,22.53
2024-02-27T20:49:21.177Z,22.07
2024-02-27T20:54:24.067Z,22.60
2024-02-27T20:59:27.125Z,22.87
2024-02-27T21:04:30.288Z,21.67
2024-02-27T21:09:33.914Z,21.30
2024-02-27T21:14:38.089Z,23.67
2024-02-27T21:19:41.534Z,20.30
2024-02-27T21:24:44.531Z,21.50
2024-02-27T21:29:47.528Z,21.90
2024-02-27T21:34:50.435Z,22.27
2024-02-27T21:39:54.297Z,21.90
2024-02-27T21:44:57.471Z,22.23
2024-02-27T21:50:00.237Z,22.37
2024-02-27T21:55:03.278Z,23.33
2024-02-27T22:00:10.009Z,24.00
2024-02-27T22:05:12.865Z,22.17
2024-02-27T22:10:15.943Z,24.97
2024-02-27T22:15:18.785Z,22.80
2024-02-27T22:20:21.814Z,22.27
2024-02-27T22:25:24.585Z,22.37
2024-02-27T22:30:27.517Z,22.90
2024-02-27T22:35:30.354Z,22.37
2024-02-27T22:40:33.499Z,22.43
2024-02-27T22:45:41.123Z,23.87
2024-02-27T22:50:44.401Z,24.77
2024-02-27T22:55:47.208Z,23.00
2024-02-27T23:00:50.490Z,22.40
2024-02-27T23:05:53.486Z,22.63
2024-02-27T23:10:56.371Z,23.70
2024-02-27T23:15:59.348Z,23.53
2024-02-27T23:21:03.637Z,24.23
2024-02-27T23:26:06.659Z,23.80
2024-02-27T23:31:09.521Z,22.37
2024-02-27T23:36:13.207Z,22.70
2024-02-27T23:41:16.236Z,22.77
2024-02-27T23:46:19.292Z,23.10
2024-02-27T23:51:22.760Z,22.50
2024-02-27T23:56:25.770Z,22.30
